createdAt,value
2023-03-19T00:14:41.136Z,9.70
2023-03-19T00:20:29.253Z,9.97
2023-03-19T00:26:04.915Z,9.87
2023-03-19T00:31:41.990Z,9.80
2023-03-19T00:37:11.832Z,9.90
2023-03-19T00:43:00.763Z,9.87
2023-03-19T00:54:01.624Z,10.33
2023-03-19T00:59:44.217Z,10.27
2023-03-19T01:05:04.371Z,10.10
2023-03-19T01:10:21.588Z,10.07
2023-03-19T01:15:47.900Z,10.50
2023-03-19T01:26:59.420Z,10.77
2023-03-19T01:32:39.555Z,10.90
2023-03-19T01:49:27.466Z,10.40
2023-03-19T02:00:43.557Z,9.67
2023-03-19T02:12:08.046Z,9.77
2023-03-19T02:17:46.126Z,10.30
2023-03-19T02:23:26.243Z,10.57
2023-03-19T02:29:28.713Z,10.80
2023-03-19T02:34:54.062Z,11.33
2023-03-19T02:40:13.331Z,10.50
2023-03-19T02:45:45.801Z,9.77
2023-03-19T02:51:32.370Z,9.83
2023-03-19T03:02:54.175Z,10.20
2023-03-19T03:08:08.960Z,10.87
2023-03-19T03:13:26.051Z,9.97
2023-03-19T03:18:57.086Z,10.67
2023-03-19T03:24:33.251Z,10.40
2023-03-19T03:29:54.550Z,10.00
2023-03-19T03:35:11.947Z,10.20
2023-03-19T03:40:48.308Z,10.90
2023-03-19T03:46:39.339Z,10.40
2023-03-19T03:52:16.120Z,9.53
2023-03-19T03:57:49.730Z,9.37
2023-03-19T04:03:17.465Z,9.90
2023-03-19T04:13:59.569Z,9.73
2023-03-19T04:19:25.250Z,9.13
2023-03-19T04:24:58.505Z,8.57
2023-03-19T04:36:09.864Z,9.80
2023-03-19T04:41:38.151Z,9.87
2023-03-19T04:46:58.099Z,9.57
2023-03-19T04:52:20.888Z,10.63
2023-03-19T04:57:39.084Z,9.60
2023-03-19T05:03:15.611Z,9.87
2023-03-19T05:08:49.500Z,10.27
2023-03-19T05:14:08.963Z,9.77
2023-03-19T05:24:52.098Z,9.73
2023-03-19T05:30:02.205Z,9.93
2023-03-19T05:35:36.175Z,9.73
2023-03-19T05:40:51.104Z,10.67
2023-03-19T05:45:59.462Z,10.33
2023-03-19T05:51:09.881Z,9.40
2023-03-19T05:56:17.440Z,10.13
2023-03-19T06:01:35.975Z,9.53
2023-03-19T06:06:40.133Z,10.00
2023-03-19T06:11:51.770Z,9.97
2023-03-19T06:17:09.337Z,8.67
2023-03-19T06:22:12.828Z,9.20
2023-03-19T06:27:23.252Z,9.43
2023-03-19T06:33:05.179Z,9.60
2023-03-19T06:38:42.597Z,9.73
2023-03-19T06:43:50.263Z,9.47
2023-03-19T06:49:06.322Z,9.10
2023-03-19T06:54:12.599Z,9.67
2023-03-19T06:59:26.779Z,9.67
2023-03-19T07:05:01.456Z,9.07
2023-03-19T07:10:11.339Z,9.03
2023-03-19T07:15:17.188Z,8.63
2023-03-19T07:20:21.373Z,9.03
2023-03-19T07:25:24.040Z,8.00
2023-03-19T07:30:26.754Z,8.03
2023-03-19T07:35:32.806Z,9.47
2023-03-19T07:40:36.951Z,11.87
2023-03-19T07:45:40.188Z,13.40
2023-03-19T07:50:44.291Z,12.77
2023-03-19T07:55:47.995Z,9.70
2023-03-19T08:00:51.865Z,10.20
2023-03-19T08:06:00.382Z,8.63
2023-03-19T08:11:03.859Z,9.13
2023-03-19T08:16:08.210Z,9.10
2023-03-19T08:21:12.189Z,8.73
2023-03-19T08:26:14.948Z,9.35
2023-03-19T08:31:17.958Z,8.35
2023-03-19T08:36:23.862Z,8.57
2023-03-19T08:41:28.074Z,8.73
2023-03-19T08:46:33.941Z,8.20
2023-03-19T08:51:39.050Z,8.35
2023-03-19T08:56:42.812Z,8.10
2023-03-19T09:01:45.996Z,8.68
2023-03-19T09:06:51.656Z,8.90
2023-03-19T09:11:55.399Z,8.63
2023-03-19T09:16:58.083Z,8.70
2023-03-19T09:22:02.226Z,7.95
2023-03-19T09:27:05.171Z,7.88
2023-03-19T09:32:07.912Z,8.48
2023-03-19T09:37:13.297Z,8.98
2023-03-19T09:42:32.948Z,8.07
2023-03-19T09:47:40.011Z,9.05
2023-03-19T09:52:47.991Z,8.40
2023-03-19T09:57:53.357Z,8.98
2023-03-19T10:03:04.101Z,8.70
2023-03-19T10:08:33.862Z,9.18
2023-03-19T10:13:51.243Z,8.48
2023-03-19T10:19:01.296Z,9.32
2023-03-19T10:24:16.150Z,8.98
2023-03-19T10:29:23.481Z,8.80
2023-03-19T10:34:39.743Z,9.13
2023-03-19T10:39:50.561Z,8.73
2023-03-19T10:45:05.997Z,9.10
2023-03-19T10:50:17.113Z,8.55
2023-03-19T10:55:26.722Z,8.80
2023-03-19T11:00:35.085Z,9.32
2023-03-19T11:05:40.275Z,8.68
2023-03-19T11:10:52.449Z,8.90
2023-03-19T11:16:08.372Z,8.90
2023-03-19T11:21:59.330Z,9.57
2023-03-19T11:27:53.157Z,9.30
2023-03-19T11:39:17.075Z,8.55
2023-03-19T11:44:43.670Z,8.73
2023-03-19T11:50:48.311Z,8.13
2023-03-19T11:56:19.077Z,8.40
2023-03-19T12:01:46.655Z,9.48
2023-03-19T12:08:04.174Z,8.80
2023-03-19T12:19:50.056Z,8.68
2023-03-19T12:31:21.365Z,8.73
2023-03-19T12:36:39.818Z,8.18
2023-03-19T12:42:26.548Z,8.50
2023-03-19T12:47:50.165Z,9.00
2023-03-19T12:53:08.527Z,9.07
2023-03-19T12:59:11.391Z,8.55
2023-03-19T13:04:34.216Z,9.57
2023-03-19T13:10:18.772Z,8.40
2023-03-19T13:15:48.533Z,8.95
2023-03-19T13:22:10.193Z,9.32
2023-03-19T13:27:57.669Z,8.80
2023-03-19T13:33:30.277Z,9.18
2023-03-19T13:45:02.464Z,9.05
2023-03-19T13:50:41.232Z,8.93
2023-03-19T13:56:32.703Z,9.23
2023-03-19T14:09:38.341Z,8.82
2023-03-19T14:21:13.098Z,8.75
2023-03-19T14:26:51.537Z,8.85
2023-03-19T14:32:41.310Z,9.35
2023-03-19T14:44:27.013Z,9.27
2023-03-19T14:56:25.294Z,9.07
2023-03-19T15:02:50.326Z,9.32
2023-03-19T15:08:47.974Z,10.57
2023-03-19T15:14:43.667Z,9.52
2023-03-19T15:20:55.341Z,8.15
2023-03-19T15:27:24.197Z,8.43
2023-03-19T15:39:57.557Z,7.65
2023-03-19T15:45:30.144Z,10.00
2023-03-19T15:51:43.511Z,8.73
2023-03-19T16:24:49.678Z,2.40
2023-03-19T16:30:01.992Z,2.20
2023-03-19T16:35:07.668Z,2.28
2023-03-19T16:40:47.741Z,2.03
2023-03-19T16:46:09.626Z,1.98
2023-03-19T16:51:19.001Z,1.58
2023-03-19T17:02:25.644Z,2.10
2023-03-19T17:07:51.858Z,1.60
2023-03-19T17:13:04.372Z,1.90
2023-03-19T17:18:23.618Z,1.80
2023-03-19T17:23:34.934Z,2.10
2023-03-19T17:28:44.699Z,1.80
2023-03-19T17:33:55.145Z,1.80
2023-03-19T17:39:05.484Z,1.60
2023-03-19T17:44:17.476Z,1.75
2023-03-19T17:49:33.232Z,2.00
2023-03-19T17:54:35.937Z,2.17
2023-03-19T17:59:42.747Z,1.85
2023-03-19T18:04:52.691Z,2.08
2023-03-19T18:10:46.653Z,1.85
2023-03-19T18:16:31.095Z,1.80
2023-03-19T18:21:45.764Z,1.73
2023-03-19T18:26:48.555Z,2.20
2023-03-19T18:31:53.137Z,2.38
2023-03-19T18:43:11.973Z,2.20
2023-03-19T18:48:25.284Z,2.13
2023-03-19T18:53:30.041Z,5.20
2023-03-19T18:58:33.014Z,4.00
2023-03-19T19:03:40.572Z,4.43
2023-03-19T19:08:45.908Z,3.00
2023-03-19T19:13:56.540Z,2.67
2023-03-19T19:19:07.421Z,3.28
2023-03-19T19:24:14.443Z,4.00
2023-03-19T22:17:59.849Z,8.67
2023-03-19T22:23:30.845Z,8.07
2023-03-19T22:28:45.090Z,8.80
2023-03-19T22:33:49.659Z,8.60
2023-03-19T22:38:52.815Z,9.80
2023-03-19T22:43:57.609Z,9.87
2023-03-19T22:49:09.074Z,9.80
2023-03-19T22:54:15.844Z,9.27
2023-03-19T22:59:23.823Z,11.20
2023-03-19T23:04:33.840Z,8.53
2023-03-19T23:09:42.470Z,10.90
2023-03-19T23:14:48.557Z,10.43
2023-03-19T23:19:52.543Z,10.13
2023-03-19T23:24:55.368Z,9.53
2023-03-19T23:29:58.192Z,9.97
2023-03-19T23:35:02.329Z,10.23
2023-03-19T23:40:06.060Z,11.03
2023-03-19T23:45:43.319Z,11.23
2023-03-19T23:50:47.771Z,12.07
2023-03-19T23:55:53.858Z,11.80
